sensor_id;sensor_type;location;lat;lon;timestamp;temperature;humidity
55693;DHT22;41590;53.366;5.212;2022-12-07T00:00:20;5.90;99.90
55693;DHT22;41590;53.366;5.212;2022-12-07T00:02:53;5.90;99.90
55693;DHT22;41590;53.366;5.212;2022-12-07T00:08:27;5.90;99.90
55693;DHT22;41590;53.366;5.212;2022-12-07T00:10:54;5.60;99.90
55693;DHT22;41590;53.366;5.212;2022-12-07T00:13:29;5.60;99.90
55693;DHT22;41590;53.366;5.212;2022-12-07T00:16:00;5.30;99.90
55693;DHT22;41590;53.366;5.212;2022-12-07T00:18:35;5.50;99.90
55693;DHT22;41590;53.366;5.212;2022-12-07T00:21:16;5.70;99.90
55693;DHT22;41590;53.366;5.212;2022-12-07T00:23:46;5.80;99.90
55693;DHT22;41590;53.366;5.212;2022-12-07T00:26:38;5.50;99.90
55693;DHT22;41590;53.366;5.212;2022-12-07T00:29:22;5.40;99.90
55693;DHT22;41590;53.366;5.212;2022-12-07T00:32:03;5.40;99.90
55693;DHT22;41590;53.366;5.212;2022-12-07T00:37:59;5.50;99.90
55693;DHT22;41590;53.366;5.212;2022-12-07T00:40:28;5.80;99.90
55693;DHT22;41590;53.366;5.212;2022-12-07T00:43:09;6.00;99.90
55693;DHT22;41590;53.366;5.212;2022-12-07T00:45:38;6.20;99.90
55693;DHT22;41590;53.366;5.212;2022-12-07T00:48:05;5.50;99.90
55693;DHT22;41590;53.366;5.212;2022-12-07T00:50:31;5.30;99.90
55693;DHT22;41590;53.366;5.212;2022-12-07T00:52:56;5.60;99.90
55693;DHT22;41590;53.366;5.212;2022-12-07T00:58:56;5.40;99.90
55693;DHT22;41590;53.366;5.212;2022-12-07T01:01:25;5.70;99.90
55693;DHT22;41590;53.366;5.212;2022-12-07T01:03:58;5.30;99.90
55693;DHT22;41590;53.366;5.212;2022-12-07T01:06:25;5.70;99.90
55693;DHT22;41590;53.366;5.212;2022-12-07T01:09:03;5.20;99.90
55693;DHT22;41590;53.366;5.212;2022-12-07T01:11:36;5.30;99.90
55693;DHT22;41590;53.366;5.212;2022-12-07T01:14:02;5.50;99.90
55693;DHT22;41590;53.366;5.212;2022-12-07T01:16:30;5.60;99.90
55693;DHT22;41590;53.366;5.212;2022-12-07T01:19:00;5.30;99.90
55693;DHT22;41590;53.366;5.212;2022-12-07T01:21:28;5.50;99.90
55693;DHT22;41590;53.366;5.212;2022-12-07T01:23:57;5.20;99.90
55693;DHT22;41590;53.366;5.212;2022-12-07T01:26:24;5.30;99.90
55693;DHT22;41590;53.366;5.212;2022-12-07T01:28:58;5.60;99.90
55693;DHT22;41590;53.366;5.212;2022-12-07T01:31:28;5.30;99.90
55693;DHT22;41590;53.366;5.212;2022-12-07T01:33:56;5.50;99.90
55693;DHT22;41590;53.366;5.212;2022-12-07T01:36:33;5.70;99.90
55693;DHT22;41590;53.366;5.212;2022-12-07T01:39:03;5.50;99.90
55693;DHT22;41590;53.366;5.212;2022-12-07T01:47:41;5.60;99.90
55693;DHT22;41590;53.366;5.212;2022-12-07T01:50:22;5.60;99.90
55693;DHT22;41590;53.366;5.212;2022-12-07T01:52:51;5.90;99.90
55693;DHT22;41590;53.366;5.212;2022-12-07T01:55:50;5.80;99.90
55693;DHT22;41590;53.366;5.212;2022-12-07T01:58:44;5.80;99.90
55693;DHT22;41590;53.366;5.212;2022-12-07T02:01:36;5.60;99.90
55693;DHT22;41590;53.366;5.212;2022-12-07T02:04:10;5.50;99.90
55693;DHT22;41590;53.366;5.212;2022-12-07T02:06:45;5.50;99.90
55693;DHT22;41590;53.366;5.212;2022-12-07T02:09:20;6.10;99.90
55693;DHT22;41590;53.366;5.212;2022-12-07T02:11:51;5.70;99.90
55693;DHT22;41590;53.366;5.212;2022-12-07T02:14:21;5.70;99.90
55693;DHT22;41590;53.366;5.212;2022-12-07T02:33:05;5.80;99.90
55693;DHT22;41590;53.366;5.212;2022-12-07T02:38:31;5.90;99.90
55693;DHT22;41590;53.366;5.212;2022-12-07T02:41:07;5.60;99.90
55693;DHT22;41590;53.366;5.212;2022-12-07T02:47:12;5.50;99.90
55693;DHT22;41590;53.366;5.212;2022-12-07T02:49:44;5.50;99.90
55693;DHT22;41590;53.366;5.212;2022-12-07T02:52:11;5.60;99.90
55693;DHT22;41590;53.366;5.212;2022-12-07T03:00:20;5.50;99.90
55693;DHT22;41590;53.366;5.212;2022-12-07T03:05:49;5.50;99.90
55693;DHT22;41590;53.366;5.212;2022-12-07T03:14:15;5.30;99.90
55693;DHT22;41590;53.366;5.212;2022-12-07T03:17:20;5.40;99.90
55693;DHT22;41590;53.366;5.212;2022-12-07T03:20:02;5.30;99.90
55693;DHT22;41590;53.366;5.212;2022-12-07T03:22:34;5.40;99.90
55693;DHT22;41590;53.366;5.212;2022-12-07T03:25:04;6.00;99.90
55693;DHT22;41590;53.366;5.212;2022-12-07T03:27:51;5.50;99.90
55693;DHT22;41590;53.366;5.212;2022-12-07T03:34:26;5.60;99.90
55693;DHT22;41590;53.366;5.212;2022-12-07T03:37:08;5.50;99.90
55693;DHT22;41590;53.366;5.212;2022-12-07T03:42:30;5.40;99.90
55693;DHT22;41590;53.366;5.212;2022-12-07T03:44:56;5.60;99.90
55693;DHT22;41590;53.366;5.212;2022-12-07T03:47:37;5.60;99.90
55693;DHT22;41590;53.366;5.212;2022-12-07T03:50:15;5.50;99.90
55693;DHT22;41590;53.366;5.212;2022-12-07T03:53:02;5.40;99.90
55693;DHT22;41590;53.366;5.212;2022-12-07T03:55:32;5.50;99.90
55693;DHT22;41590;53.366;5.212;2022-12-07T03:58:13;5.40;99.90
55693;DHT22;41590;53.366;5.212;2022-12-07T04:00:41;5.50;99.90
55693;DHT22;41590;53.366;5.212;2022-12-07T04:03:16;5.40;99.90
55693;DHT22;41590;53.366;5.212;2022-12-07T04:05:49;5.20;99.90
55693;DHT22;41590;53.366;5.212;2022-12-07T04:08:15;5.10;99.90
55693;DHT22;41590;53.366;5.212;2022-12-07T04:10:42;5.10;99.90
55693;DHT22;41590;53.366;5.212;2022-12-07T04:13:40;5.70;99.90
55693;DHT22;41590;53.366;5.212;2022-12-07T04:16:58;5.20;99.90
55693;DHT22;41590;53.366;5.212;2022-12-07T04:19:34;5.10;99.90
55693;DHT22;41590;53.366;5.212;2022-12-07T04:22:32;4.80;99.90
55693;DHT22;41590;53.366;5.212;2022-12-07T04:25:14;4.80;99.90
55693;DHT22;41590;53.366;5.212;2022-12-07T04:27:47;5.00;99.90
55693;DHT22;41590;53.366;5.212;2022-12-07T04:30:20;5.00;99.90
55693;DHT22;41590;53.366;5.212;2022-12-07T04:35:50;5.00;99.90
55693;DHT22;41590;53.366;5.212;2022-12-07T04:38:25;5.10;99.90
55693;DHT22;41590;53.366;5.212;2022-12-07T04:40:56;5.30;99.90
55693;DHT22;41590;53.366;5.212;2022-12-07T04:43:35;5.30;99.90
55693;DHT22;41590;53.366;5.212;2022-12-07T04:46:31;5.90;99.90
55693;DHT22;41590;53.366;5.212;2022-12-07T04:49:17;5.40;99.90
55693;DHT22;41590;53.366;5.212;2022-12-07T04:55:50;5.30;99.90
55693;DHT22;41590;53.366;5.212;2022-12-07T04:58:17;5.40;99.90
55693;DHT22;41590;53.366;5.212;2022-12-07T05:00:43;5.20;99.90
55693;DHT22;41590;53.366;5.212;2022-12-07T05:03:16;5.30;99.90
55693;DHT22;41590;53.366;5.212;2022-12-07T05:05:44;5.00;99.90
55693;DHT22;41590;53.366;5.212;2022-12-07T05:08:11;5.30;99.90
55693;DHT22;41590;53.366;5.212;2022-12-07T06:10:37;4.30;99.90
55693;DHT22;41590;53.366;5.212;2022-12-07T16:41:29;4.20;99.90
55693;DHT22;41590;53.366;5.212;2022-12-07T16:43:55;4.30;99.90
55693;DHT22;41590;53.366;5.212;2022-12-07T16:46:44;4.10;99.90
55693;DHT22;41590;53.366;5.212;2022-12-07T16:49:18;4.00;99.90
55693;DHT22;41590;53.366;5.212;2022-12-07T16:52:08;4.10;99.90
55693;DHT22;41590;53.366;5.212;2022-12-07T16:55:11;3.90;99.90
55693;DHT22;41590;53.366;5.212;2022-12-07T17:04:57;4.00;99.90
55693;DHT22;41590;53.366;5.212;2022-12-07T17:07:29;4.10;99.90
55693;DHT22;41590;53.366;5.212;2022-12-07T17:10:33;4.40;99.90
55693;DHT22;41590;53.366;5.212;2022-12-07T17:16:47;4.30;99.90
55693;DHT22;41590;53.366;5.212;2022-12-07T17:19:19;4.30;99.90
55693;DHT22;41590;53.366;5.212;2022-12-07T17:21:47;4.30;99.90
55693;DHT22;41590;53.366;5.212;2022-12-07T17:27:20;4.10;99.90
55693;DHT22;41590;53.366;5.212;2022-12-07T17:29:47;4.00;99.90
55693;DHT22;41590;53.366;5.212;2022-12-07T17:32:18;4.10;99.90
55693;DHT22;41590;53.366;5.212;2022-12-07T17:34:46;4.30;99.90
55693;DHT22;41590;53.366;5.212;2022-12-07T17:37:34;4.20;99.90
55693;DHT22;41590;53.366;5.212;2022-12-07T17:40:13;4.00;99.90
55693;DHT22;41590;53.366;5.212;2022-12-07T17:42:44;4.20;99.90
55693;DHT22;41590;53.366;5.212;2022-12-07T17:45:14;4.60;99.90
55693;DHT22;41590;53.366;5.212;2022-12-07T17:47:49;4.60;99.90
55693;DHT22;41590;53.366;5.212;2022-12-07T17:50:22;5.00;99.90
55693;DHT22;41590;53.366;5.212;2022-12-07T17:53:13;4.80;99.90
55693;DHT22;41590;53.366;5.212;2022-12-07T17:55:40;5.30;99.90
55693;DHT22;41590;53.366;5.212;2022-12-07T17:58:09;5.40;99.90
55693;DHT22;41590;53.366;5.212;2022-12-07T18:00:53;5.90;99.90
55693;DHT22;41590;53.366;5.212;2022-12-07T18:03:35;5.10;99.90
55693;DHT22;41590;53.366;5.212;2022-12-07T18:06:03;5.60;99.90
55693;DHT22;41590;53.366;5.212;2022-12-07T18:08:41;5.20;99.90
55693;DHT22;41590;53.366;5.212;2022-12-07T18:11:12;5.10;99.90
55693;DHT22;41590;53.366;5.212;2022-12-07T18:14:06;6.10;99.90
55693;DHT22;41590;53.366;5.212;2022-12-07T18:19:39;5.10;99.90
55693;DHT22;41590;53.366;5.212;2022-12-07T18:22:12;5.10;99.90
55693;DHT22;41590;53.366;5.212;2022-12-07T18:24:51;5.70;99.90
55693;DHT22;41590;53.366;5.212;2022-12-07T18:30:33;5.30;99.90
55693;DHT22;41590;53.366;5.212;2022-12-07T18:32:59;5.20;99.90
55693;DHT22;41590;53.366;5.212;2022-12-07T18:35:33;4.90;99.90
55693;DHT22;41590;53.366;5.212;2022-12-07T18:38:01;4.70;99.90
55693;DHT22;41590;53.366;5.212;2022-12-07T18:40:45;4.50;99.90
55693;DHT22;41590;53.366;5.212;2022-12-07T18:43:16;4.30;99.90
55693;DHT22;41590;53.366;5.212;2022-12-07T18:45:45;4.00;99.90
55693;DHT22;41590;53.366;5.212;2022-12-07T18:48:18;4.30;99.90
55693;DHT22;41590;53.366;5.212;2022-12-07T18:50:58;4.30;99.90
55693;DHT22;41590;53.366;5.212;2022-12-07T18:53:38;3.80;99.90
55693;DHT22;41590;53.366;5.212;2022-12-07T18:56:16;4.20;99.90
55693;DHT22;41590;53.366;5.212;2022-12-07T18:59:00;4.00;99.90
55693;DHT22;41590;53.366;5.212;2022-12-07T19:01:58;4.20;99.90
55693;DHT22;41590;53.366;5.212;2022-12-07T19:04:25;4.60;99.90
55693;DHT22;41590;53.366;5.212;2022-12-07T19:07:01;4.20;99.90
55693;DHT22;41590;53.366;5.212;2022-12-07T19:09:27;3.90;99.90
55693;DHT22;41590;53.366;5.212;2022-12-07T19:11:54;4.20;99.90
55693;DHT22;41590;53.366;5.212;2022-12-07T19:14:30;5.00;99.90
55693;DHT22;41590;53.366;5.212;2022-12-07T19:17:08;4.30;99.90
55693;DHT22;41590;53.366;5.212;2022-12-07T19:19:38;4.30;99.90
55693;DHT22;41590;53.366;5.212;2022-12-07T19:22:23;4.20;99.90
55693;DHT22;41590;53.366;5.212;2022-12-07T19:28:27;4.20;99.90
55693;DHT22;41590;53.366;5.212;2022-12-07T19:30:58;4.30;99.90
55693;DHT22;41590;53.366;5.212;2022-12-07T19:33:24;4.60;99.90
55693;DHT22;41590;53.366;5.212;2022-12-07T19:36:10;4.70;99.90
55693;DHT22;41590;53.366;5.212;2022-12-07T19:38:35;3.80;99.90
55693;DHT22;41590;53.366;5.212;2022-12-07T19:41:15;4.40;99.90
55693;DHT22;41590;53.366;5.212;2022-12-07T19:44:12;3.60;99.90
55693;DHT22;41590;53.366;5.212;2022-12-07T19:46:42;4.30;99.90
55693;DHT22;41590;53.366;5.212;2022-12-07T19:49:10;4.60;99.90
55693;DHT22;41590;53.366;5.212;2022-12-07T19:51:38;4.80;99.90
55693;DHT22;41590;53.366;5.212;2022-12-07T19:54:04;4.50;99.90
55693;DHT22;41590;53.366;5.212;2022-12-07T19:56:30;5.20;99.90
55693;DHT22;41590;53.366;5.212;2022-12-07T19:58:58;4.40;99.90
55693;DHT22;41590;53.366;5.212;2022-12-07T20:01:27;4.80;99.90
55693;DHT22;41590;53.366;5.212;2022-12-07T20:03:54;5.20;99.90
55693;DHT22;41590;53.366;5.212;2022-12-07T20:06:20;4.60;99.90
55693;DHT22;41590;53.366;5.212;2022-12-07T20:08:53;4.60;99.90
55693;DHT22;41590;53.366;5.212;2022-12-07T20:11:22;4.70;99.90
55693;DHT22;41590;53.366;5.212;2022-12-07T20:14:10;4.90;99.90
55693;DHT22;41590;53.366;5.212;2022-12-07T20:16:37;5.20;99.90
55693;DHT22;41590;53.366;5.212;2022-12-07T20:19:13;4.40;99.90
55693;DHT22;41590;53.366;5.212;2022-12-07T20:21:41;5.40;99.90
55693;DHT22;41590;53.366;5.212;2022-12-07T20:24:15;4.30;99.90
55693;DHT22;41590;53.366;5.212;2022-12-07T20:26:44;4.40;99.90
55693;DHT22;41590;53.366;5.212;2022-12-07T20:29:33;4.90;99.90
55693;DHT22;41590;53.366;5.212;2022-12-07T20:32:02;4.00;99.90
55693;DHT22;41590;53.366;5.212;2022-12-07T20:34:30;4.20;99.90
55693;DHT22;41590;53.366;5.212;2022-12-07T20:36:59;4.20;99.90
55693;DHT22;41590;53.366;5.212;2022-12-07T20:39:36;4.00;99.90
55693;DHT22;41590;53.366;5.212;2022-12-07T20:42:02;3.90;99.90
55693;DHT22;41590;53.366;5.212;2022-12-07T20:45:12;4.20;99.90
55693;DHT22;41590;53.366;5.212;2022-12-07T20:47:45;4.20;99.90
55693;DHT22;41590;53.366;5.212;2022-12-07T20:50:13;4.00;99.90
55693;DHT22;41590;53.366;5.212;2022-12-07T20:52:40;4.40;99.90
55693;DHT22;41590;53.366;5.212;2022-12-07T20:55:08;4.50;99.90
55693;DHT22;41590;53.366;5.212;2022-12-07T20:57:36;4.50;99.90
55693;DHT22;41590;53.366;5.212;2022-12-07T21:00:09;4.30;99.90
55693;DHT22;41590;53.366;5.212;2022-12-07T21:02:45;4.40;99.90
55693;DHT22;41590;53.366;5.212;2022-12-07T21:05:22;4.30;99.90
55693;DHT22;41590;53.366;5.212;2022-12-07T21:07:49;4.30;99.90
55693;DHT22;41590;53.366;5.212;2022-12-07T21:10:15;4.00;99.90
55693;DHT22;41590;53.366;5.212;2022-12-07T21:12:44;4.10;99.90
55693;DHT22;41590;53.366;5.212;2022-12-07T21:15:10;4.30;99.90
55693;DHT22;41590;53.366;5.212;2022-12-07T21:17:44;3.90;99.90
55693;DHT22;41590;53.366;5.212;2022-12-07T21:20:16;5.00;99.90
55693;DHT22;41590;53.366;5.212;2022-12-07T21:22:42;4.10;99.90
55693;DHT22;41590;53.366;5.212;2022-12-07T21:25:10;5.00;99.90
55693;DHT22;41590;53.366;5.212;2022-12-07T21:27:40;5.20;99.90
55693;DHT22;41590;53.366;5.212;2022-12-07T21:30:07;4.70;99.90
55693;DHT22;41590;53.366;5.212;2022-12-07T21:32:34;3.90;99.90
55693;DHT22;41590;53.366;5.212;2022-12-07T21:35:02;3.90;99.90
55693;DHT22;41590;53.366;5.212;2022-12-07T21:37:32;4.20;99.90
55693;DHT22;41590;53.366;5.212;2022-12-07T21:39:59;4.40;99.90
55693;DHT22;41590;53.366;5.212;2022-12-07T21:42:28;3.90;99.90
55693;DHT22;41590;53.366;5.212;2022-12-07T21:44:54;4.50;99.90
55693;DHT22;41590;53.366;5.212;2022-12-07T21:47:19;4.10;99.90
55693;DHT22;41590;53.366;5.212;2022-12-07T21:49:51;5.10;99.90
55693;DHT22;41590;53.366;5.212;2022-12-07T21:52:20;5.40;99.90
55693;DHT22;41590;53.366;5.212;2022-12-07T21:57:50;4.20;99.90
55693;DHT22;41590;53.366;5.212;2022-12-07T22:00:25;4.70;99.90
55693;DHT22;41590;53.366;5.212;2022-12-07T22:02:53;4.90;99.90
55693;DHT22;41590;53.366;5.212;2022-12-07T22:05:22;4.50;99.90
55693;DHT22;41590;53.366;5.212;2022-12-07T22:07:48;4.40;99.90
55693;DHT22;41590;53.366;5.212;2022-12-07T22:10:14;4.60;99.90
55693;DHT22;41590;53.366;5.212;2022-12-07T22:13:03;5.30;99.90
55693;DHT22;41590;53.366;5.212;2022-12-07T22:15:29;5.10;99.90
55693;DHT22;41590;53.366;5.212;2022-12-07T22:18:05;4.60;99.90
55693;DHT22;41590;53.366;5.212;2022-12-07T22:20:32;4.50;99.90
55693;DHT22;41590;53.366;5.212;2022-12-07T22:23:02;4.70;99.90
55693;DHT22;41590;53.366;5.212;2022-12-07T22:25:29;4.90;99.90
55693;DHT22;41590;53.366;5.212;2022-12-07T22:27:55;4.70;99.90
55693;DHT22;41590;53.366;5.212;2022-12-07T22:30:24;5.10;99.90
55693;DHT22;41590;53.366;5.212;2022-12-07T22:32:52;4.90;99.90
55693;DHT22;41590;53.366;5.212;2022-12-07T22:35:20;4.90;99.90
55693;DHT22;41590;53.366;5.212;2022-12-07T22:38:03;4.80;99.90
55693;DHT22;41590;53.366;5.212;2022-12-07T22:40:29;5.40;99.90
55693;DHT22;41590;53.366;5.212;2022-12-07T22:42:54;4.90;99.90
55693;DHT22;41590;53.366;5.212;2022-12-07T22:45:34;5.00;99.90
55693;DHT22;41590;53.366;5.212;2022-12-07T22:48:15;4.90;99.90
55693;DHT22;41590;53.366;5.212;2022-12-07T22:50:42;5.00;99.90
55693;DHT22;41590;53.366;5.212;2022-12-07T22:53:21;4.90;99.90
55693;DHT22;41590;53.366;5.212;2022-12-07T22:55:47;5.00;99.90
55693;DHT22;41590;53.366;5.212;2022-12-07T22:58:14;4.80;99.90
55693;DHT22;41590;53.366;5.212;2022-12-07T23:01:18;5.90;99.90
55693;DHT22;41590;53.366;5.212;2022-12-07T23:03:48;5.00;99.90
55693;DHT22;41590;53.366;5.212;2022-12-07T23:06:51;5.20;99.90
55693;DHT22;41590;53.366;5.212;2022-12-07T23:09:21;4.60;99.90
55693;DHT22;41590;53.366;5.212;2022-12-07T23:12:04;4.30;99.90
55693;DHT22;41590;53.366;5.212;2022-12-07T23:15:03;4.70;99.90
55693;DHT22;41590;53.366;5.212;2022-12-07T23:17:36;4.60;99.90
55693;DHT22;41590;53.366;5.212;2022-12-07T23:20:03;4.30;99.90
55693;DHT22;41590;53.366;5.212;2022-12-07T23:22:35;4.00;99.90
55693;DHT22;41590;53.366;5.212;2022-12-07T23:25:03;4.30;99.90
55693;DHT22;41590;53.366;5.212;2022-12-07T23:27:31;4.20;99.90
55693;DHT22;41590;53.366;5.212;2022-12-07T23:29:57;5.20;99.90
55693;DHT22;41590;53.366;5.212;2022-12-07T23:32:30;5.10;99.90
55693;DHT22;41590;53.366;5.212;2022-12-07T23:34:56;4.50;99.90
55693;DHT22;41590;53.366;5.212;2022-12-07T23:37:25;4.40;99.90
55693;DHT22;41590;53.366;5.212;2022-12-07T23:39:54;4.50;99.90
55693;DHT22;41590;53.366;5.212;2022-12-07T23:42:21;4.20;99.90
55693;DHT22;41590;53.366;5.212;2022-12-07T23:44:53;4.40;99.90
55693;DHT22;41590;53.366;5.212;2022-12-07T23:47:20;4.20;99.90
55693;DHT22;41590;53.366;5.212;2022-12-07T23:49:49;4.30;99.90
55693;DHT22;41590;53.366;5.212;2022-12-07T23:52:15;4.80;99.90
55693;DHT22;41590;53.366;5.212;2022-12-07T23:54:50;4.40;99.90
55693;DHT22;41590;53.366;5.212;2022-12-07T23:57:19;4.20;99.90
55693;DHT22;41590;53.366;5.212;2022-12-07T23:59:45;4.70;99.90
